sensor_id;sensor_type;location;lat;lon;timestamp;temperature;humidity
35559;DHT22;21661;50.794;-1.066;2023-02-15T00:00:09;7.20;99.90
35559;DHT22;21661;50.794;-1.066;2023-02-15T00:02:38;7.20;99.90
35559;DHT22;21661;50.794;-1.066;2023-02-15T00:05:03;7.20;99.90
35559;DHT22;21661;50.794;-1.066;2023-02-15T00:07:29;7.30;99.90
35559;DHT22;21661;50.794;-1.066;2023-02-15T00:09:55;7.30;99.90
35559;DHT22;21661;50.794;-1.066;2023-02-15T00:12:20;7.30;99.90
35559;DHT22;21661;50.794;-1.066;2023-02-15T00:14:47;7.30;99.90
35559;DHT22;21661;50.794;-1.066;2023-02-15T00:17:13;7.20;99.90
35559;DHT22;21661;50.794;-1.066;2023-02-15T00:19:39;7.20;99.90
35559;DHT22;21661;50.794;-1.066;2023-02-15T00:22:05;7.20;99.90
35559;DHT22;21661;50.794;-1.066;2023-02-15T00:24:31;7.20;99.90
35559;DHT22;21661;50.794;-1.066;2023-02-15T00:26:57;7.20;99.90
35559;DHT22;21661;50.794;-1.066;2023-02-15T00:29:22;7.20;99.90
35559;DHT22;21661;50.794;-1.066;2023-02-15T00:31:48;7.20;99.90
35559;DHT22;21661;50.794;-1.066;2023-02-15T00:36:44;7.20;99.90
35559;DHT22;21661;50.794;-1.066;2023-02-15T00:39:11;7.20;99.90
35559;DHT22;21661;50.794;-1.066;2023-02-15T00:41:36;7.20;99.90
35559;DHT22;21661;50.794;-1.066;2023-02-15T00:44:02;7.10;99.90
35559;DHT22;21661;50.794;-1.066;2023-02-15T00:46:28;7.10;99.90
35559;DHT22;21661;50.794;-1.066;2023-02-15T00:48:53;7.20;99.90
35559;DHT22;21661;50.794;-1.066;2023-02-15T00:51:19;7.20;99.90
35559;DHT22;21661;50.794;-1.066;2023-02-15T00:53:45;7.20;99.90
35559;DHT22;21661;50.794;-1.066;2023-02-15T00:56:11;7.20;99.90
35559;DHT22;21661;50.794;-1.066;2023-02-15T00:58:37;7.20;99.90
35559;DHT22;21661;50.794;-1.066;2023-02-15T01:01:08;7.20;99.90
35559;DHT22;21661;50.794;-1.066;2023-02-15T01:03:33;7.30;99.90
35559;DHT22;21661;50.794;-1.066;2023-02-15T01:05:59;7.20;99.90
35559;DHT22;21661;50.794;-1.066;2023-02-15T01:08:25;7.20;99.90
35559;DHT22;21661;50.794;-1.066;2023-02-15T01:10:51;7.30;99.90
35559;DHT22;21661;50.794;-1.066;2023-02-15T01:13:17;7.30;99.90
35559;DHT22;21661;50.794;-1.066;2023-02-15T01:15:43;7.30;99.90
35559;DHT22;21661;50.794;-1.066;2023-02-15T01:18:12;7.30;99.90
35559;DHT22;21661;50.794;-1.066;2023-02-15T01:20:39;7.30;99.90
35559;DHT22;21661;50.794;-1.066;2023-02-15T01:23:07;7.30;99.90
35559;DHT22;21661;50.794;-1.066;2023-02-15T01:25:34;7.30;99.90
35559;DHT22;21661;50.794;-1.066;2023-02-15T01:28:00;7.20;99.90
35559;DHT22;21661;50.794;-1.066;2023-02-15T01:30:26;7.20;99.90
35559;DHT22;21661;50.794;-1.066;2023-02-15T01:32:52;7.20;99.90
35559;DHT22;21661;50.794;-1.066;2023-02-15T01:35:18;7.20;99.90
35559;DHT22;21661;50.794;-1.066;2023-02-15T01:37:43;7.20;99.90
35559;DHT22;21661;50.794;-1.066;2023-02-15T01:40:15;7.10;99.90
35559;DHT22;21661;50.794;-1.066;2023-02-15T01:42:41;7.10;99.90
35559;DHT22;21661;50.794;-1.066;2023-02-15T01:45:30;7.10;99.90
35559;DHT22;21661;50.794;-1.066;2023-02-15T01:48:01;7.10;99.90
35559;DHT22;21661;50.794;-1.066;2023-02-15T01:50:38;7.10;99.90
35559;DHT22;21661;50.794;-1.066;2023-02-15T01:53:13;7.20;99.90
35559;DHT22;21661;50.794;-1.066;2023-02-15T01:56:06;7.30;99.90
35559;DHT22;21661;50.794;-1.066;2023-02-15T01:58:34;7.30;99.90
35559;DHT22;21661;50.794;-1.066;2023-02-15T02:01:00;7.30;99.90
35559;DHT22;21661;50.794;-1.066;2023-02-15T02:06:06;7.40;99.90
35559;DHT22;21661;50.794;-1.066;2023-02-15T02:08:32;7.40;99.90
35559;DHT22;21661;50.794;-1.066;2023-02-15T02:10:58;7.40;99.90
35559;DHT22;21661;50.794;-1.066;2023-02-15T02:13:23;7.40;99.90
35559;DHT22;21661;50.794;-1.066;2023-02-15T02:16:00;7.40;99.90
35559;DHT22;21661;50.794;-1.066;2023-02-15T02:32:44;7.20;99.90
35559;DHT22;21661;50.794;-1.066;2023-02-15T02:41:00;7.00;99.90
35559;DHT22;21661;50.794;-1.066;2023-02-15T02:46:53;7.00;99.90
35559;DHT22;21661;50.794;-1.066;2023-02-15T02:49:11;6.90;99.90
35559;DHT22;21661;50.794;-1.066;2023-02-15T02:51:37;6.90;99.90
35559;DHT22;21661;50.794;-1.066;2023-02-15T02:54:05;6.90;99.90
35559;DHT22;21661;50.794;-1.066;2023-02-15T02:56:39;6.90;99.90
35559;DHT22;21661;50.794;-1.066;2023-02-15T02:59:11;6.80;99.90
35559;DHT22;21661;50.794;-1.066;2023-02-15T03:04:17;6.70;99.90
35559;DHT22;21661;50.794;-1.066;2023-02-15T03:06:50;6.70;99.90
35559;DHT22;21661;50.794;-1.066;2023-02-15T03:09:25;6.70;99.90
35559;DHT22;21661;50.794;-1.066;2023-02-15T03:12:00;6.70;99.90
35559;DHT22;21661;50.794;-1.066;2023-02-15T03:14:27;6.70;99.90
35559;DHT22;21661;50.794;-1.066;2023-02-15T03:16:54;6.70;99.90
35559;DHT22;21661;50.794;-1.066;2023-02-15T03:19:26;6.70;99.90
35559;DHT22;21661;50.794;-1.066;2023-02-15T03:22:00;6.70;99.90
35559;DHT22;21661;50.794;-1.066;2023-02-15T03:24:37;6.60;99.90
35559;DHT22;21661;50.794;-1.066;2023-02-15T03:27:09;6.70;99.90
35559;DHT22;21661;50.794;-1.066;2023-02-15T03:29:37;6.70;99.90
35559;DHT22;21661;50.794;-1.066;2023-02-15T03:32:05;6.70;99.90
35559;DHT22;21661;50.794;-1.066;2023-02-15T03:34:32;6.60;99.90
35559;DHT22;21661;50.794;-1.066;2023-02-15T03:39:38;6.60;99.90
35559;DHT22;21661;50.794;-1.066;2023-02-15T03:42:09;6.70;99.90
35559;DHT22;21661;50.794;-1.066;2023-02-15T03:47:20;6.70;99.90
35559;DHT22;21661;50.794;-1.066;2023-02-15T03:49:57;6.70;99.90
35559;DHT22;21661;50.794;-1.066;2023-02-15T03:52:26;6.60;99.90
35559;DHT22;21661;50.794;-1.066;2023-02-15T03:54:53;6.70;99.90
35559;DHT22;21661;50.794;-1.066;2023-02-15T03:57:25;6.70;99.90
35559;DHT22;21661;50.794;-1.066;2023-02-15T04:00:17;6.70;99.90
35559;DHT22;21661;50.794;-1.066;2023-02-15T04:03:24;6.70;99.90
35559;DHT22;21661;50.794;-1.066;2023-02-15T04:05:54;6.70;99.90
35559;DHT22;21661;50.794;-1.066;2023-02-15T04:08:20;6.70;99.90
35559;DHT22;21661;50.794;-1.066;2023-02-15T04:10:46;6.70;99.90
35559;DHT22;21661;50.794;-1.066;2023-02-15T04:13:18;6.70;99.90
35559;DHT22;21661;50.794;-1.066;2023-02-15T04:15:43;6.70;99.90
35559;DHT22;21661;50.794;-1.066;2023-02-15T04:18:46;6.70;99.90
35559;DHT22;21661;50.794;-1.066;2023-02-15T04:21:31;6.70;99.90
35559;DHT22;21661;50.794;-1.066;2023-02-15T04:24:15;6.70;99.90
35559;DHT22;21661;50.794;-1.066;2023-02-15T04:27:00;6.80;99.90
35559;DHT22;21661;50.794;-1.066;2023-02-15T04:29:26;6.80;99.90
35559;DHT22;21661;50.794;-1.066;2023-02-15T04:31:53;6.80;99.90
35559;DHT22;21661;50.794;-1.066;2023-02-15T04:34:19;6.80;99.90
35559;DHT22;21661;50.794;-1.066;2023-02-15T04:36:45;6.80;99.90
35559;DHT22;21661;50.794;-1.066;2023-02-15T04:39:15;6.80;99.90
35559;DHT22;21661;50.794;-1.066;2023-02-15T04:41:40;6.70;99.90
35559;DHT22;21661;50.794;-1.066;2023-02-15T04:44:06;6.70;99.90
35559;DHT22;21661;50.794;-1.066;2023-02-15T04:46:32;6.70;99.90
35559;DHT22;21661;50.794;-1.066;2023-02-15T04:48:57;6.70;99.90
35559;DHT22;21661;50.794;-1.066;2023-02-15T04:51:23;6.70;99.90
35559;DHT22;21661;50.794;-1.066;2023-02-15T04:53:49;6.70;99.90
35559;DHT22;21661;50.794;-1.066;2023-02-15T04:56:15;6.70;99.90
35559;DHT22;21661;50.794;-1.066;2023-02-15T04:58:40;6.70;99.90
35559;DHT22;21661;50.794;-1.066;2023-02-15T05:01:07;6.80;99.90
35559;DHT22;21661;50.794;-1.066;2023-02-15T05:03:33;6.80;99.90
35559;DHT22;21661;50.794;-1.066;2023-02-15T05:05:59;6.70;99.90
35559;DHT22;21661;50.794;-1.066;2023-02-15T05:08:24;6.70;99.90
35559;DHT22;21661;50.794;-1.066;2023-02-15T05:10:50;6.80;99.90
35559;DHT22;21661;50.794;-1.066;2023-02-15T05:13:16;6.80;99.90
35559;DHT22;21661;50.794;-1.066;2023-02-15T05:15:50;6.80;99.90
35559;DHT22;21661;50.794;-1.066;2023-02-15T05:18:17;6.90;99.90
35559;DHT22;21661;50.794;-1.066;2023-02-15T05:20:43;6.90;99.90
35559;DHT22;21661;50.794;-1.066;2023-02-15T05:23:09;6.90;99.90
35559;DHT22;21661;50.794;-1.066;2023-02-15T05:25:34;6.90;99.90
35559;DHT22;21661;50.794;-1.066;2023-02-15T05:28:19;6.90;99.90
35559;DHT22;21661;50.794;-1.066;2023-02-15T05:30:48;7.00;99.90
35559;DHT22;21661;50.794;-1.066;2023-02-15T05:33:14;7.00;99.90
35559;DHT22;21661;50.794;-1.066;2023-02-15T05:35:40;7.00;99.90
35559;DHT22;21661;50.794;-1.066;2023-02-15T05:38:06;7.00;99.90
35559;DHT22;21661;50.794;-1.066;2023-02-15T05:40:32;7.10;99.90
35559;DHT22;21661;50.794;-1.066;2023-02-15T05:42:57;7.10;99.90
35559;DHT22;21661;50.794;-1.066;2023-02-15T05:45:23;7.00;99.90
35559;DHT22;21661;50.794;-1.066;2023-02-15T05:47:49;7.00;99.90
35559;DHT22;21661;50.794;-1.066;2023-02-15T05:50:14;7.00;99.90
35559;DHT22;21661;50.794;-1.066;2023-02-15T05:52:40;7.00;99.90
35559;DHT22;21661;50.794;-1.066;2023-02-15T05:55:06;6.90;99.90
35559;DHT22;21661;50.794;-1.066;2023-02-15T05:57:34;6.90;99.90
35559;DHT22;21661;50.794;-1.066;2023-02-15T06:00:01;6.90;99.90
35559;DHT22;21661;50.794;-1.066;2023-02-15T06:02:29;6.90;99.90
35559;DHT22;21661;50.794;-1.066;2023-02-15T06:04:58;6.90;99.90
35559;DHT22;21661;50.794;-1.066;2023-02-15T06:07:24;6.90;99.90
35559;DHT22;21661;50.794;-1.066;2023-02-15T06:09:49;6.90;99.90
35559;DHT22;21661;50.794;-1.066;2023-02-15T06:12:15;7.00;99.90
35559;DHT22;21661;50.794;-1.066;2023-02-15T06:14:41;7.00;99.90
35559;DHT22;21661;50.794;-1.066;2023-02-15T06:17:06;7.00;99.90
35559;DHT22;21661;50.794;-1.066;2023-02-15T06:19:32;6.90;99.90
35559;DHT22;21661;50.794;-1.066;2023-02-15T06:21:57;7.00;99.90
35559;DHT22;21661;50.794;-1.066;2023-02-15T06:24:23;6.90;99.90
35559;DHT22;21661;50.794;-1.066;2023-02-15T06:26:48;6.90;99.90
35559;DHT22;21661;50.794;-1.066;2023-02-15T06:29:14;7.00;99.90
35559;DHT22;21661;50.794;-1.066;2023-02-15T06:31:40;6.90;99.90
35559;DHT22;21661;50.794;-1.066;2023-02-15T06:34:05;6.90;99.90
35559;DHT22;21661;50.794;-1.066;2023-02-15T06:36:31;6.80;99.90
35559;DHT22;21661;50.794;-1.066;2023-02-15T06:38:57;6.80;99.90
35559;DHT22;21661;50.794;-1.066;2023-02-15T06:41:23;6.80;99.90
35559;DHT22;21661;50.794;-1.066;2023-02-15T06:43:49;6.80;99.90
35559;DHT22;21661;50.794;-1.066;2023-02-15T06:46:15;6.80;99.90
35559;DHT22;21661;50.794;-1.066;2023-02-15T06:48:40;6.70;99.90
35559;DHT22;21661;50.794;-1.066;2023-02-15T06:51:06;6.80;99.90
35559;DHT22;21661;50.794;-1.066;2023-02-15T06:53:31;6.80;99.90
35559;DHT22;21661;50.794;-1.066;2023-02-15T06:56:05;6.80;99.90
35559;DHT22;21661;50.794;-1.066;2023-02-15T06:58:39;6.70;99.90
35559;DHT22;21661;50.794;-1.066;2023-02-15T07:01:06;6.80;99.90
35559;DHT22;21661;50.794;-1.066;2023-02-15T07:03:32;6.80;99.90
35559;DHT22;21661;50.794;-1.066;2023-02-15T07:05:59;6.80;99.90
35559;DHT22;21661;50.794;-1.066;2023-02-15T07:08:26;6.70;99.90
35559;DHT22;21661;50.794;-1.066;2023-02-15T07:10:52;6.70;99.90
35559;DHT22;21661;50.794;-1.066;2023-02-15T07:13:19;6.70;99.90
35559;DHT22;21661;50.794;-1.066;2023-02-15T07:15:46;6.70;99.90
35559;DHT22;21661;50.794;-1.066;2023-02-15T07:18:12;6.60;99.90
35559;DHT22;21661;50.794;-1.066;2023-02-15T07:20:38;6.70;99.90
35559;DHT22;21661;50.794;-1.066;2023-02-15T07:23:06;6.60;99.90
35559;DHT22;21661;50.794;-1.066;2023-02-15T07:25:33;6.70;99.90
35559;DHT22;21661;50.794;-1.066;2023-02-15T07:28:00;6.70;99.90
35559;DHT22;21661;50.794;-1.066;2023-02-15T07:30:26;6.80;99.90
35559;DHT22;21661;50.794;-1.066;2023-02-15T07:32:55;6.80;99.90
35559;DHT22;21661;50.794;-1.066;2023-02-15T07:35:48;6.80;99.90
35559;DHT22;21661;50.794;-1.066;2023-02-15T07:38:14;6.70;99.90
35559;DHT22;21661;50.794;-1.066;2023-02-15T07:40:40;6.70;99.90
35559;DHT22;21661;50.794;-1.066;2023-02-15T07:43:05;6.80;99.90
35559;DHT22;21661;50.794;-1.066;2023-02-15T07:45:31;6.80;99.90
35559;DHT22;21661;50.794;-1.066;2023-02-15T07:47:57;6.90;99.90
35559;DHT22;21661;50.794;-1.066;2023-02-15T07:50:22;7.00;99.90
35559;DHT22;21661;50.794;-1.066;2023-02-15T07:52:48;7.00;99.90
35559;DHT22;21661;50.794;-1.066;2023-02-15T07:55:13;6.90;99.90
35559;DHT22;21661;50.794;-1.066;2023-02-15T07:57:47;6.90;99.90
35559;DHT22;21661;50.794;-1.066;2023-02-15T08:00:15;6.90;99.90
35559;DHT22;21661;50.794;-1.066;2023-02-15T08:02:41;7.00;99.90
35559;DHT22;21661;50.794;-1.066;2023-02-15T08:05:07;6.90;99.90
35559;DHT22;21661;50.794;-1.066;2023-02-15T08:07:32;6.90;99.90
35559;DHT22;21661;50.794;-1.066;2023-02-15T08:09:58;6.90;99.90
35559;DHT22;21661;50.794;-1.066;2023-02-15T08:12:26;7.00;99.90
35559;DHT22;21661;50.794;-1.066;2023-02-15T08:14:52;6.90;99.90
35559;DHT22;21661;50.794;-1.066;2023-02-15T08:17:18;6.90;99.90
35559;DHT22;21661;50.794;-1.066;2023-02-15T08:19:44;6.90;99.90
35559;DHT22;21661;50.794;-1.066;2023-02-15T08:22:12;6.90;99.90
35559;DHT22;21661;50.794;-1.066;2023-02-15T08:24:38;6.90;99.90
35559;DHT22;21661;50.794;-1.066;2023-02-15T08:27:09;6.90;99.90
35559;DHT22;21661;50.794;-1.066;2023-02-15T08:29:36;6.90;99.90
35559;DHT22;21661;50.794;-1.066;2023-02-15T08:32:05;6.90;99.90
35559;DHT22;21661;50.794;-1.066;2023-02-15T08:34:34;6.90;99.90
35559;DHT22;21661;50.794;-1.066;2023-02-15T08:37:00;6.90;99.90
35559;DHT22;21661;50.794;-1.066;2023-02-15T08:39:26;7.00;99.90
35559;DHT22;21661;50.794;-1.066;2023-02-15T08:41:52;7.00;99.90
35559;DHT22;21661;50.794;-1.066;2023-02-15T08:44:19;7.00;99.90
35559;DHT22;21661;50.794;-1.066;2023-02-15T08:46:46;7.10;99.90
35559;DHT22;21661;50.794;-1.066;2023-02-15T08:49:17;7.20;99.90
35559;DHT22;21661;50.794;-1.066;2023-02-15T08:51:43;7.30;99.90
35559;DHT22;21661;50.794;-1.066;2023-02-15T08:54:12;7.30;99.90
35559;DHT22;21661;50.794;-1.066;2023-02-15T08:56:40;7.40;99.90
35559;DHT22;21661;50.794;-1.066;2023-02-15T08:59:11;7.50;99.90
35559;DHT22;21661;50.794;-1.066;2023-02-15T09:01:37;7.50;99.90
35559;DHT22;21661;50.794;-1.066;2023-02-15T09:04:05;7.60;99.90
35559;DHT22;21661;50.794;-1.066;2023-02-15T09:06:33;7.80;99.90
35559;DHT22;21661;50.794;-1.066;2023-02-15T09:08:59;8.00;99.90
35559;DHT22;21661;50.794;-1.066;2023-02-15T09:11:30;8.00;99.90
35559;DHT22;21661;50.794;-1.066;2023-02-15T09:13:58;8.10;99.90
35559;DHT22;21661;50.794;-1.066;2023-02-15T09:16:26;8.20;99.90
35559;DHT22;21661;50.794;-1.066;2023-02-15T09:18:53;8.30;99.90
35559;DHT22;21661;50.794;-1.066;2023-02-15T09:21:21;8.40;99.90
35559;DHT22;21661;50.794;-1.066;2023-02-15T09:23:49;8.40;99.90
35559;DHT22;21661;50.794;-1.066;2023-02-15T09:26:20;8.50;99.90
35559;DHT22;21661;50.794;-1.066;2023-02-15T09:28:51;8.60;99.90
35559;DHT22;21661;50.794;-1.066;2023-02-15T09:31:19;8.60;99.90
35559;DHT22;21661;50.794;-1.066;2023-02-15T09:33:46;8.70;99.90
35559;DHT22;21661;50.794;-1.066;2023-02-15T09:36:33;8.70;99.90
35559;DHT22;21661;50.794;-1.066;2023-02-15T09:39:21;8.70;99.90
35559;DHT22;21661;50.794;-1.066;2023-02-15T09:45:16;8.90;99.90
35559;DHT22;21661;50.794;-1.066;2023-02-15T09:53:29;9.10;99.90
35559;DHT22;21661;50.794;-1.066;2023-02-15T09:56:12;9.10;99.90
35559;DHT22;21661;50.794;-1.066;2023-02-15T10:20:23;9.60;99.90
35559;DHT22;21661;50.794;-1.066;2023-02-15T10:28:19;9.70;99.90
35559;DHT22;21661;50.794;-1.066;2023-02-15T10:30:50;9.80;99.90
35559;DHT22;21661;50.794;-1.066;2023-02-15T10:39:07;9.80;99.90
35559;DHT22;21661;50.794;-1.066;2023-02-15T10:49:51;10.20;99.90
35559;DHT22;21661;50.794;-1.066;2023-02-15T10:52:28;10.20;99.90
35559;DHT22;21661;50.794;-1.066;2023-02-15T10:55:05;10.20;99.90
35559;DHT22;21661;50.794;-1.066;2023-02-15T11:08:26;10.20;99.90
35559;DHT22;21661;50.794;-1.066;2023-02-15T11:10:58;10.20;99.90
35559;DHT22;21661;50.794;-1.066;2023-02-15T11:13:31;10.30;99.90
35559;DHT22;21661;50.794;-1.066;2023-02-15T11:16:17;10.30;99.90
35559;DHT22;21661;50.794;-1.066;2023-02-15T11:18:54;10.40;99.90
35559;DHT22;21661;50.794;-1.066;2023-02-15T11:21:27;10.30;99.90
35559;DHT22;21661;50.794;-1.066;2023-02-15T11:23:59;10.50;99.90
35559;DHT22;21661;50.794;-1.066;2023-02-15T11:26:29;10.60;99.90
35559;DHT22;21661;50.794;-1.066;2023-02-15T11:29:46;10.60;99.90
35559;DHT22;21661;50.794;-1.066;2023-02-15T11:32:25;10.80;99.90
35559;DHT22;21661;50.794;-1.066;2023-02-15T11:34:56;10.90;99.90
35559;DHT22;21661;50.794;-1.066;2023-02-15T11:40:34;10.90;99.90
35559;DHT22;21661;50.794;-1.066;2023-02-15T11:43:13;11.00;99.90
35559;DHT22;21661;50.794;-1.066;2023-02-15T11:45:42;11.00;99.90
35559;DHT22;21661;50.794;-1.066;2023-02-15T11:48:13;11.10;99.90
35559;DHT22;21661;50.794;-1.066;2023-02-15T11:50:40;11.20;99.90
35559;DHT22;21661;50.794;-1.066;2023-02-15T11:53:14;11.30;99.90
35559;DHT22;21661;50.794;-1.066;2023-02-15T11:55:43;11.40;99.90
35559;DHT22;21661;50.794;-1.066;2023-02-15T12:01:23;11.40;99.90
35559;DHT22;21661;50.794;-1.066;2023-02-15T12:03:50;11.50;99.90
35559;DHT22;21661;50.794;-1.066;2023-02-15T12:06:24;11.50;99.90
35559;DHT22;21661;50.794;-1.066;2023-02-15T12:09:01;11.60;99.90
35559;DHT22;21661;50.794;-1.066;2023-02-15T12:11:38;11.60;99.90
35559;DHT22;21661;50.794;-1.066;2023-02-15T12:14:07;11.60;99.90
35559;DHT22;21661;50.794;-1.066;2023-02-15T12:16:53;11.60;99.90
35559;DHT22;21661;50.794;-1.066;2023-02-15T12:19:38;11.60;99.90
35559;DHT22;21661;50.794;-1.066;2023-02-15T12:22:22;11.80;99.90
35559;DHT22;21661;50.794;-1.066;2023-02-15T12:24:50;11.80;99.90
35559;DHT22;21661;50.794;-1.066;2023-02-15T12:27:19;11.90;99.90
35559;DHT22;21661;50.794;-1.066;2023-02-15T12:29:50;12.00;99.90
35559;DHT22;21661;50.794;-1.066;2023-02-15T12:32:29;12.00;99.90
35559;DHT22;21661;50.794;-1.066;2023-02-15T12:35:26;12.10;99.90
35559;DHT22;21661;50.794;-1.066;2023-02-15T12:38:02;12.10;99.90
35559;DHT22;21661;50.794;-1.066;2023-02-15T12:40:31;12.20;99.90
35559;DHT22;21661;50.794;-1.066;2023-02-15T12:42:59;12.20;99.90
35559;DHT22;21661;50.794;-1.066;2023-02-15T12:45:32;12.20;99.90
35559;DHT22;21661;50.794;-1.066;2023-02-15T12:50:38;12.20;99.90
35559;DHT22;21661;50.794;-1.066;2023-02-15T12:53:32;12.40;99.90
35559;DHT22;21661;50.794;-1.066;2023-02-15T12:56:06;12.30;99.90
35559;DHT22;21661;50.794;-1.066;2023-02-15T12:58:33;12.20;99.90
35559;DHT22;21661;50.794;-1.066;2023-02-15T13:01:18;12.10;99.90
35559;DHT22;21661;50.794;-1.066;2023-02-15T13:04:04;12.00;99.90
35559;DHT22;21661;50.794;-1.066;2023-02-15T13:06:32;11.80;99.90
35559;DHT22;21661;50.794;-1.066;2023-02-15T13:09:33;11.80;99.90
35559;DHT22;21661;50.794;-1.066;2023-02-15T13:14:49;11.80;99.90
35559;DHT22;21661;50.794;-1.066;2023-02-15T13:17:25;11.90;99.90
35559;DHT22;21661;50.794;-1.066;2023-02-15T13:19:56;12.00;99.90
35559;DHT22;21661;50.794;-1.066;2023-02-15T13:22:33;12.00;99.90
35559;DHT22;21661;50.794;-1.066;2023-02-15T13:25:04;12.00;99.90
35559;DHT22;21661;50.794;-1.066;2023-02-15T13:27:40;12.10;99.90
35559;DHT22;21661;50.794;-1.066;2023-02-15T13:30:31;12.10;99.90
35559;DHT22;21661;50.794;-1.066;2023-02-15T13:33:06;12.20;99.90
35559;DHT22;21661;50.794;-1.066;2023-02-15T13:35:54;12.30;99.90
35559;DHT22;21661;50.794;-1.066;2023-02-15T13:41:03;12.40;99.90
35559;DHT22;21661;50.794;-1.066;2023-02-15T13:46:23;12.60;99.90
35559;DHT22;21661;50.794;-1.066;2023-02-15T13:51:52;12.70;99.90
35559;DHT22;21661;50.794;-1.066;2023-02-15T13:54:36;12.60;99.90
35559;DHT22;21661;50.794;-1.066;2023-02-15T13:58:14;12.70;99.90
35559;DHT22;21661;50.794;-1.066;2023-02-15T14:00:20;12.80;99.90
35559;DHT22;21661;50.794;-1.066;2023-02-15T14:10:59;13.00;99.90
35559;DHT22;21661;50.794;-1.066;2023-02-15T14:16:36;13.00;99.90
35559;DHT22;21661;50.794;-1.066;2023-02-15T14:24:37;13.10;99.90
35559;DHT22;21661;50.794;-1.066;2023-02-15T14:30:15;13.00;99.90
35559;DHT22;21661;50.794;-1.066;2023-02-15T14:32:48;13.10;99.90
35559;DHT22;21661;50.794;-1.066;2023-02-15T14:35:19;13.00;99.90
35559;DHT22;21661;50.794;-1.066;2023-02-15T14:40:54;13.00;99.90
35559;DHT22;21661;50.794;-1.066;2023-02-15T14:46:12;13.00;99.90
35559;DHT22;21661;50.794;-1.066;2023-02-15T14:48:48;12.90;99.90
35559;DHT22;21661;50.794;-1.066;2023-02-15T14:54:07;12.80;99.90
35559;DHT22;21661;50.794;-1.066;2023-02-15T14:56:33;12.80;99.90
35559;DHT22;21661;50.794;-1.066;2023-02-15T14:59:21;12.80;99.90
35559;DHT22;21661;50.794;-1.066;2023-02-15T15:04:34;12.80;99.90
35559;DHT22;21661;50.794;-1.066;2023-02-15T15:09:37;12.70;99.90
35559;DHT22;21661;50.794;-1.066;2023-02-15T15:14:53;12.70;99.90
35559;DHT22;21661;50.794;-1.066;2023-02-15T15:17:52;12.60;99.90
35559;DHT22;21661;50.794;-1.066;2023-02-15T15:20:47;12.60;99.90
35559;DHT22;21661;50.794;-1.066;2023-02-15T15:31:20;12.50;99.90
35559;DHT22;21661;50.794;-1.066;2023-02-15T15:39:24;12.50;99.90
35559;DHT22;21661;50.794;-1.066;2023-02-15T15:42:19;12.50;99.90
35559;DHT22;21661;50.794;-1.066;2023-02-15T15:50:32;12.30;99.90
35559;DHT22;21661;50.794;-1.066;2023-02-15T15:53:00;12.20;99.90
35559;DHT22;21661;50.794;-1.066;2023-02-15T15:55:29;12.10;99.90
35559;DHT22;21661;50.794;-1.066;2023-02-15T15:57:58;12.30;99.90
35559;DHT22;21661;50.794;-1.066;2023-02-15T16:00:52;12.20;99.90
35559;DHT22;21661;50.794;-1.066;2023-02-15T16:03:23;12.10;99.90
35559;DHT22;21661;50.794;-1.066;2023-02-15T16:05:49;12.10;99.90
35559;DHT22;21661;50.794;-1.066;2023-02-15T16:08:31;12.10;99.90
35559;DHT22;21661;50.794;-1.066;2023-02-15T16:10:58;12.00;99.90
35559;DHT22;21661;50.794;-1.066;2023-02-15T16:13:25;12.00;99.90
35559;DHT22;21661;50.794;-1.066;2023-02-15T16:15:53;11.90;99.90
35559;DHT22;21661;50.794;-1.066;2023-02-15T16:18:25;11.90;99.90
35559;DHT22;21661;50.794;-1.066;2023-02-15T16:21:00;11.90;99.90
35559;DHT22;21661;50.794;-1.066;2023-02-15T16:28:36;11.60;99.90
35559;DHT22;21661;50.794;-1.066;2023-02-15T16:31:12;11.60;99.90
35559;DHT22;21661;50.794;-1.066;2023-02-15T16:33:39;11.50;99.90
35559;DHT22;21661;50.794;-1.066;2023-02-15T16:36:10;11.50;99.90
35559;DHT22;21661;50.794;-1.066;2023-02-15T16:41:17;11.40;99.90
35559;DHT22;21661;50.794;-1.066;2023-02-15T16:43:47;11.40;99.90
35559;DHT22;21661;50.794;-1.066;2023-02-15T16:46:18;11.30;99.90
35559;DHT22;21661;50.794;-1.066;2023-02-15T16:48:46;11.40;99.90
35559;DHT22;21661;50.794;-1.066;2023-02-15T16:51:22;11.40;99.90
35559;DHT22;21661;50.794;-1.066;2023-02-15T16:53:49;11.30;99.90
35559;DHT22;21661;50.794;-1.066;2023-02-15T16:56:15;11.30;99.90
35559;DHT22;21661;50.794;-1.066;2023-02-15T16:58:44;11.20;99.90
35559;DHT22;21661;50.794;-1.066;2023-02-15T17:01:14;11.20;99.90
35559;DHT22;21661;50.794;-1.066;2023-02-15T17:03:41;11.10;99.90
35559;DHT22;21661;50.794;-1.066;2023-02-15T17:06:25;11.10;99.90
35559;DHT22;21661;50.794;-1.066;2023-02-15T17:09:04;11.00;99.90
35559;DHT22;21661;50.794;-1.066;2023-02-15T17:11:41;11.00;99.90
35559;DHT22;21661;50.794;-1.066;2023-02-15T17:19:49;10.90;99.90
35559;DHT22;21661;50.794;-1.066;2023-02-15T17:22:24;10.90;99.90
35559;DHT22;21661;50.794;-1.066;2023-02-15T17:24:59;10.90;99.90
35559;DHT22;21661;50.794;-1.066;2023-02-15T17:27:29;10.90;99.90
35559;DHT22;21661;50.794;-1.066;2023-02-15T17:29:59;10.90;99.90
35559;DHT22;21661;50.794;-1.066;2023-02-15T17:32:27;10.80;99.90
35559;DHT22;21661;50.794;-1.066;2023-02-15T17:40:24;10.70;99.90
35559;DHT22;21661;50.794;-1.066;2023-02-15T17:42:50;10.70;99.90
35559;DHT22;21661;50.794;-1.066;2023-02-15T17:45:16;10.70;99.90
35559;DHT22;21661;50.794;-1.066;2023-02-15T17:47:43;10.70;99.90
35559;DHT22;21661;50.794;-1.066;2023-02-15T17:50:19;10.50;99.90
35559;DHT22;21661;50.794;-1.066;2023-02-15T17:52:45;10.80;99.90
35559;DHT22;21661;50.794;-1.066;2023-02-15T17:55:17;10.70;99.90
35559;DHT22;21661;50.794;-1.066;2023-02-15T17:58:05;10.70;99.90
35559;DHT22;21661;50.794;-1.066;2023-02-15T18:00:32;10.70;99.90
35559;DHT22;21661;50.794;-1.066;2023-02-15T18:03:17;10.70;99.90
35559;DHT22;21661;50.794;-1.066;2023-02-15T18:06:02;10.70;99.90
35559;DHT22;21661;50.794;-1.066;2023-02-15T18:08:46;10.70;99.90
35559;DHT22;21661;50.794;-1.066;2023-02-15T18:11:30;10.70;99.90
35559;DHT22;21661;50.794;-1.066;2023-02-15T18:14:06;10.80;99.90
35559;DHT22;21661;50.794;-1.066;2023-02-15T18:16:35;10.80;99.90
35559;DHT22;21661;50.794;-1.066;2023-02-15T18:19:03;10.80;99.90
35559;DHT22;21661;50.794;-1.066;2023-02-15T18:21:30;10.80;99.90
35559;DHT22;21661;50.794;-1.066;2023-02-15T18:23:56;10.80;99.90
35559;DHT22;21661;50.794;-1.066;2023-02-15T18:26:23;10.80;99.90
35559;DHT22;21661;50.794;-1.066;2023-02-15T18:28:50;10.70;99.90
35559;DHT22;21661;50.794;-1.066;2023-02-15T18:31:16;10.70;99.90
35559;DHT22;21661;50.794;-1.066;2023-02-15T18:33:46;10.70;99.90
35559;DHT22;21661;50.794;-1.066;2023-02-15T18:36:36;10.70;99.90
35559;DHT22;21661;50.794;-1.066;2023-02-15T18:39:05;10.70;99.90
35559;DHT22;21661;50.794;-1.066;2023-02-15T18:41:39;10.70;99.90
35559;DHT22;21661;50.794;-1.066;2023-02-15T18:44:10;10.70;99.90
35559;DHT22;21661;50.794;-1.066;2023-02-15T18:46:36;10.70;99.90
35559;DHT22;21661;50.794;-1.066;2023-02-15T18:49:01;10.80;99.90
35559;DHT22;21661;50.794;-1.066;2023-02-15T18:51:27;10.80;99.90
35559;DHT22;21661;50.794;-1.066;2023-02-15T18:53:52;10.80;99.90
35559;DHT22;21661;50.794;-1.066;2023-02-15T18:56:20;10.80;99.90
35559;DHT22;21661;50.794;-1.066;2023-02-15T18:58:47;10.80;99.90